Time;durP1;ratioP1;P1;durP2;ratioP2;P2;SDS_P1;SDS_P2;PMS_P1;PMS_P2;Temp;Humidity;BMP_temperature;BMP_pressure;BME280_temperature;BME280_humidity;BME280_pressure;Samples;Min_cycle;Max_cycle;Signal;HPM_P1;HPM_P2
2022/04/24 00:01:03;;;;;;;7.65;4.07;;;;;;;8.49;nan;99792.34;10371914;28;20034;-71
2022/04/24 00:06:05;;;;;;;8.82;4.40;;;;;;;8.42;nan;99764.41;10378190;28;20814;-72
2022/04/24 00:11:07;;;;;;;10.45;4.55;;;;;;;8.33;nan;99731.28;10375149;28;20052;-71
2022/04/24 00:16:09;;;;;;;8.98;4.38;;;;;;;8.29;nan;99721.69;10364058;28;20041;-71
2022/04/24 00:21:11;;;;;;;8.75;4.32;;;;;;;8.21;nan;99687.72;10364065;28;20053;-71
2022/04/24 00:26:13;;;;;;;10.48;4.40;;;;;;;8.15;nan;99669.38;10373065;28;20159;-72
2022/04/24 00:31:15;;;;;;;7.63;3.92;;;;;;;8.00;nan;99615.41;10379475;28;20037;-71
2022/04/24 00:36:16;;;;;;;8.18;4.18;;;;;;;7.91;nan;99573.59;10379579;28;20048;-72
2022/04/24 00:41:18;;;;;;;7.45;3.97;;;;;;;7.86;nan;99554.44;10361044;28;20035;-72
2022/04/24 00:46:40;;;;;;;9.88;4.10;;;;;;;7.82;nan;99539.63;10357926;28;20050;-72
2022/04/24 00:51:43;;;;;;;8.60;4.53;;;;;;;7.73;nan;99511.75;10356389;28;20647;-71
2022/04/24 00:56:45;;;;;;;7.78;3.83;;;;;;;7.76;nan;99522.22;10351278;28;20053;-72
2022/04/24 01:01:46;;;;;;;10.32;4.28;;;;;;;7.64;nan;99475.22;10355753;28;20072;-71
2022/04/24 01:06:48;;;;;;;10.02;4.22;;;;;;;7.61;nan;99471.72;10357507;28;20046;-71
2022/04/24 01:11:55;;;;;;;8.48;3.75;;;;;;;7.60;nan;99467.38;10350826;28;20042;-71
2022/04/24 01:16:58;;;;;;;10.02;4.15;;;;;;;7.54;nan;99454.31;10357557;28;20050;-72
2022/04/24 01:21:59;;;;;;;7.97;4.20;;;;;;;7.46;nan;99419.53;10357361;28;20057;-71
2022/04/24 01:27:01;;;;;;;12.65;3.97;;;;;;;7.43;nan;99411.66;10355377;28;20049;-72
2022/04/24 01:32:03;;;;;;;7.07;4.00;;;;;;;7.33;nan;99373.41;10363210;28;20058;-71
2022/04/24 01:37:05;;;;;;;7.38;3.50;;;;;;;;;;10351135;28;20187;-72
2022/04/24 01:42:06;;;;;;;6.93;3.60;;;;;;;;;;10356087;28;20493;-71
2022/04/24 01:47:07;;;;;;;8.50;4.10;;;;;;;;;;10357123;28;20042;-71
2022/04/24 01:52:09;;;;;;;7.32;3.90;;;;;;;;;;10355012;28;20121;-71
2022/04/24 01:57:10;;;;;;;7.90;4.03;;;;;;;;;;10353956;28;20100;-71
2022/04/24 02:02:12;;;;;;;8.10;4.10;;;;;;;;;;10356598;28;20484;-71
2022/04/24 02:07:14;;;;;;;10.60;4.65;;;;;;;;;;10357026;28;20073;-71
2022/04/24 02:12:15;;;;;;;9.50;4.38;;;;;;;;;;10349933;28;20042;-71
2022/04/24 02:17:17;;;;;;;12.18;5.05;;;;;;;;;;10357075;28;20045;-71
2022/04/24 02:22:19;;;;;;;10.57;5.38;;;;;;;;;;10363129;28;20137;-71
2022/04/24 02:27:21;;;;;;;8.70;5.05;;;;;;;;;;10362555;28;20050;-72
2022/04/24 02:32:22;;;;;;;11.23;5.28;;;;;;;;;;10354665;28;20042;-71
2022/04/24 02:37:25;;;;;;;12.07;5.35;;;;;;;;;;10359765;28;20054;-71
2022/04/24 02:42:27;;;;;;;9.40;4.90;;;;;;;;;;10349574;28;20524;-71
2022/04/24 02:47:28;;;;;;;10.27;5.13;;;;;;;;;;10363216;28;20815;-71
2022/04/24 02:52:30;;;;;;;8.32;4.43;;;;;;;;;;10361841;28;20389;-72
2022/04/24 02:57:33;;;;;;;8.90;4.35;;;;;;;;;;10372568;28;20041;-71
2022/04/24 03:02:41;;;;;;;10.05;5.13;;;;;;;;;;10374086;28;20121;-71
2022/04/24 03:07:43;;;;;;;9.70;4.72;;;;;;;;;;10359591;28;20521;-71
2022/04/24 03:12:44;;;;;;;9.25;4.10;;;;;;;;;;10360556;28;20042;-71
2022/04/24 03:17:45;;;;;;;9.52;5.03;;;;;;;;;;10354943;28;20054;-71
2022/04/24 03:22:47;;;;;;;10.25;5.18;;;;;;;;;;10361113;28;20048;-71
2022/04/24 03:27:48;;;;;;;9.98;4.50;;;;;;;;;;10363181;28;20045;-71
2022/04/24 03:32:50;;;;;;;9.45;4.55;;;;;;;;;;10360704;28;20390;-71
2022/04/24 03:37:52;;;;;;;8.85;4.28;;;;;;;;;;10348490;28;20050;-71
2022/04/24 03:42:54;;;;;;;11.18;4.75;;;;;;;;;;10360721;28;20058;-71
2022/04/24 03:47:55;;;;;;;9.80;4.70;;;;;;;;;;10360872;28;20588;-71
2022/04/24 03:52:56;;;;;;;10.88;4.57;;;;;;;;;;10359519;28;20050;-71
2022/04/24 03:57:58;;;;;;;8.80;4.72;;;;;;;;;;10356244;28;20057;-71
2022/04/24 04:02:59;;;;;;;8.18;4.28;;;;;;;;;;10359813;28;20049;-71
2022/04/24 04:08:01;;;;;;;11.75;4.63;;;;;;;;;;10359539;28;20383;-71
2022/04/24 04:13:09;;;;;;;8.88;4.60;;;;;;;;;;10359259;28;20046;-71
2022/04/24 04:18:11;;;;;;;8.63;4.72;;;;;;;;;;10359704;28;20042;-71
2022/04/24 04:23:12;;;;;;;9.00;4.82;;;;;;;;;;10355853;28;20041;-71
2022/04/24 04:28:14;;;;;;;7.97;4.10;;;;;;;;;;10354746;28;20057;-71
2022/04/24 04:33:15;;;;;;;9.93;4.53;;;;;;;;;;10360140;28;20050;-71
2022/04/24 04:38:17;;;;;;;9.57;4.65;;;;;;;;;;10358762;28;20062;-71
2022/04/24 04:43:18;;;;;;;8.93;4.50;;;;;;;;;;10359572;28;20042;-71
2022/04/24 04:48:20;;;;;;;9.20;4.30;;;;;;;;;;10353128;28;20060;-71
2022/04/24 04:53:22;;;;;;;9.82;4.47;;;;;;;;;;10359885;28;20045;-71
2022/04/24 04:58:23;;;;;;;9.10;3.78;;;;;;;;;;10361115;28;20042;-71
2022/04/24 05:03:25;;;;;;;7.75;3.53;;;;;;;;;;10360049;28;20137;-71
2022/04/24 05:08:26;;;;;;;10.57;4.00;;;;;;;;;;10359822;28;20050;-71
2022/04/24 05:13:28;;;;;;;8.43;3.65;;;;;;;;;;10361612;28;20048;-71
2022/04/24 05:18:29;;;;;;;6.82;2.92;;;;;;;;;;10368510;28;20049;-71
2022/04/24 05:23:31;;;;;;;7.45;3.13;;;;;;;;;;10353779;28;20045;-71
2022/04/24 05:28:32;;;;;;;10.93;2.97;;;;;;;;;;10349365;28;20038;-72
2022/04/24 05:33:33;;;;;;;9.25;3.20;;;;;;;;;;10357812;28;20038;-71
2022/04/24 05:38:35;;;;;;;7.78;2.88;;;;;;;;;;10348993;28;20481;-71
2022/04/24 05:43:36;;;;;;;8.00;3.28;;;;;;;;;;10358192;28;20553;-71
2022/04/24 05:48:43;;;;;;;9.20;2.78;;;;;;;;;;10365551;28;20506;-71
2022/04/24 05:53:45;;;;;;;7.18;2.80;;;;;;;;;;10362292;28;20053;-71
2022/04/24 05:58:46;;;;;;;8.75;3.03;;;;;;;;;;10366070;28;20084;-70
2022/04/24 06:03:48;;;;;;;9.60;3.38;;;;;;;;;;10368933;28;20052;-72
2022/04/24 06:08:49;;;;;;;4.93;2.47;;;;;;;;;;10372071;28;20037;-73
2022/04/24 06:13:51;;;;;;;9.20;3.33;;;;;;;;;;10361933;28;20041;-73
2022/04/24 06:18:52;;;;;;;11.98;3.08;;;;;;;;;;10368857;28;20050;-73
2022/04/24 06:23:54;;;;;;;6.53;2.88;;;;;;;;;;10363827;28;20038;-73
2022/04/24 06:28:55;;;;;;;8.88;3.42;;;;;;;;;;10360314;28;20054;-70
2022/04/24 06:33:57;;;;;;;7.18;2.92;;;;;;;;;;10360313;28;20042;-72
2022/04/24 06:39:00;;;;;;;12.38;2.67;;;;;;;;;;10367005;28;20042;-72
2022/04/24 06:44:01;;;;;;;5.88;2.58;;;;;;;;;;10361444;28;20408;-73
2022/04/24 06:49:02;;;;;;;5.35;2.60;;;;;;;;;;10358405;28;20042;-73
2022/04/24 06:54:04;;;;;;;6.65;2.88;;;;;;;10.97;nan;100919.09;10359142;28;20030;-73
2022/04/24 06:59:06;;;;;;;5.85;2.60;;;;;;;11.41;nan;101093.72;10352141;28;20044;-73
2022/04/24 07:04:07;;;;;;;6.57;2.45;;;;;;;11.16;nan;100993.69;10363382;28;20069;-73
2022/04/24 07:09:10;;;;;;;8.10;2.95;;;;;;;11.62;nan;101182.41;10366912;28;20065;-73
2022/04/24 07:14:12;;;;;;;8.20;2.40;;;;;;;11.87;nan;101279.97;10363533;28;20042;-73
2022/04/24 07:19:14;;;;;;;8.13;2.50;;;;;;;12.13;nan;101390.75;10365463;28;20040;-73
2022/04/24 07:24:16;;;;;;;6.43;2.30;;;;;;;12.54;nan;101561.44;10360062;28;20072;-74
2022/04/24 07:29:17;;;;;;;5.78;2.55;;;;;;;13.14;nan;101799.31;10368183;28;20052;-73
2022/04/24 07:34:19;;;;;;;7.13;2.47;;;;;;;13.20;nan;101831.00;10368426;28;20046;-71
2022/04/24 07:39:21;;;;;;;6.40;2.33;;;;;;;13.60;nan;101988.91;10364478;28;20046;-72
2022/04/24 07:44:22;;;;;;;8.13;2.17;;;;;;;14.19;nan;102230.84;10366876;28;20079;-72
2022/04/24 07:49:24;;;;;;;6.72;2.30;;;;;;;14.23;nan;102250.25;10359170;28;21618;-70
2022/04/24 07:54:25;;;;;;;6.30;2.72;;;;;;;14.51;nan;102365.16;10353013;28;20487;-73
2022/04/24 07:59:27;;;;;;;6.38;2.55;;;;;;;14.30;nan;102279.41;10351091;28;20721;-73
2022/04/24 08:04:29;;;;;;;6.68;2.50;;;;;;;14.59;nan;102391.72;10361380;28;20469;-73
2022/04/24 08:09:30;;;;;;;6.35;2.60;;;;;;;14.72;nan;102448.34;10361463;28;20053;-73
2022/04/24 08:14:32;;;;;;;5.22;2.45;;;;;;;15.20;nan;102645.69;10356893;28;20048;-72
2022/04/24 08:19:34;;;;;;;9.60;3.08;;;;;;;15.43;nan;102740.44;10350691;28;20057;-73
2022/04/24 08:24:35;;;;;;;7.22;2.83;;;;;;;15.35;nan;102700.66;10355899;28;20053;-73
2022/04/24 08:29:37;;;;;;;7.93;3.40;;;;;;;15.70;nan;102853.88;10356425;28;20037;-73
2022/04/24 08:34:39;;;;;;;10.88;3.15;;;;;;;15.57;nan;102799.84;10360516;28;20464;-74
2022/04/24 08:39:41;;;;;;;10.77;3.03;;;;;;;15.70;nan;102854.78;10366303;28;20041;-73
2022/04/24 08:44:43;;;;;;;6.75;3.25;;;;;;;15.31;nan;102686.47;10351335;28;20045;-73
2022/04/24 08:49:47;;;;;;;7.18;3.00;;;;;;;15.62;nan;102813.16;10365142;28;20042;-73
2022/04/24 08:54:50;;;;;;;7.05;3.10;;;;;;;15.60;nan;102807.84;10374907;28;20421;-72
2022/04/24 08:59:55;;;;;;;7.82;3.20;;;;;;;15.82;nan;102890.34;10358137;28;20050;-72
2022/04/24 09:05:17;;;;;;;10.18;3.47;;;;;;;16.02;nan;102968.44;10364406;28;20034;-73
2022/04/24 09:10:19;;;;;;;8.23;2.70;;;;;;;15.88;nan;102907.28;10355550;28;20150;-72
2022/04/24 09:15:21;;;;;;;5.28;2.35;;;;;;;15.85;nan;102893.06;10355072;28;20057;-72
2022/04/24 09:20:22;;;;;;;10.07;2.70;;;;;;;16.44;nan;103142.38;10348866;28;20401;-72
2022/04/24 09:25:40;;;;;;;6.07;2.53;;;;;;;18.44;nan;103973.56;10360944;28;20582;-73
2022/04/24 09:30:49;;;;;;;9.70;2.92;;;;;;;16.93;nan;103332.59;10356576;28;20052;-72
2022/04/24 09:35:54;;;;;;;6.93;2.72;;;;;;;16.61;nan;103200.19;10357372;28;20050;-72
2022/04/24 09:40:56;;;;;;;6.63;2.40;;;;;;;16.26;nan;103051.97;10356568;28;20056;-72
2022/04/24 09:45:58;;;;;;;7.80;2.75;;;;;;;16.47;nan;103135.38;10362791;28;20045;-72
2022/04/24 09:51:00;;;;;;;5.03;2.20;;;;;;;16.43;nan;103113.25;10362279;28;20046;-72
2022/04/24 09:56:02;;;;;;;7.82;2.08;;;;;;;16.41;nan;103110.56;10355075;28;20091;-72
2022/04/24 10:01:06;;;;;;;5.78;2.25;;;;;;;16.63;nan;103184.38;10348774;28;20065;-72
2022/04/24 10:06:09;;;;;;;5.45;2.38;;;;;;;16.55;nan;103153.28;10356214;28;20425;-72
2022/04/24 10:11:11;;;;;;;5.63;2.47;;;;;;;16.84;nan;103268.78;10361894;28;20054;-72
2022/04/24 10:16:34;;;;;;;4.82;2.22;;;;;;;16.49;nan;103118.72;10361606;28;20073;-73
2022/04/24 10:22:13;;;;;;;5.90;2.10;;;;;;;16.90;nan;103284.88;10355097;28;20050;-73
2022/04/24 10:27:16;;;;;;;8.35;2.20;;;;;;;17.18;nan;103391.59;10360566;28;20482;-72
2022/04/24 10:32:30;;;;;;;6.72;2.22;;;;;;;17.06;nan;103344.47;10351038;28;20168;-73
2022/04/24 10:37:33;;;;;;;3.90;1.90;;;;;;;16.67;nan;103175.69;10361767;28;20472;-72
2022/04/24 10:42:35;;;;;;;7.82;2.35;;;;;;;16.61;nan;103149.94;10361156;28;20042;-71
2022/04/24 10:47:45;;;;;;;7.32;2.22;;;;;;;16.69;nan;103166.03;10354993;28;20506;-73
2022/04/24 10:52:55;;;;;;;7.32;2.40;;;;;;;16.87;nan;103237.16;10354215;28;20521;-72
2022/04/24 10:57:59;;;;;;;8.02;2.33;;;;;;;16.14;nan;102946.78;10356451;28;20042;-72
2022/04/24 11:03:05;;;;;;;5.57;2.33;;;;;;;16.88;nan;103233.66;10357749;28;20049;-72
2022/04/24 11:08:09;;;;;;;6.63;2.60;;;;;;;16.60;nan;103121.69;10360342;28;20515;-73
2022/04/24 11:13:12;;;;;;;4.82;2.17;;;;;;;15.86;nan;102811.22;10359808;28;20042;-72
2022/04/24 11:18:19;;;;;;;6.07;2.15;;;;;;;15.80;nan;102782.00;10360060;28;20089;-72
2022/04/24 11:23:28;;;;;;;5.47;2.10;;;;;;;15.48;nan;102643.81;10358781;28;20049;-73
2022/04/24 11:28:37;;;;;;;6.35;2.78;;;;;;;15.15;nan;102507.47;10359039;28;20057;-72
2022/04/24 11:33:54;;;;;;;5.77;2.40;;;;;;;15.76;nan;102752.78;10359068;28;20041;-73
2022/04/24 11:38:56;;;;;;;5.90;1.98;;;;;;;16.25;nan;102955.00;10356441;28;20057;-70
2022/04/24 12:00:52;;;;;;;7.05;2.53;;;;;;;16.45;nan;103021.63;10358508;28;20042;-71
2022/04/24 12:06:01;;;;;;;11.63;3.40;;;;;;;16.44;nan;103012.81;10359571;28;20117;-73
2022/04/24 12:11:02;;;;;;;5.47;2.42;;;;;;;17.36;nan;103383.34;10357923;28;20887;-73
2022/04/24 12:16:04;;;;;;;9.10;3.22;;;;;;;16.35;nan;102972.91;10364218;28;20073;-72
2022/04/24 12:21:17;;;;;;;13.30;7.28;;;;;;;15.69;nan;102697.19;10371352;28;20511;-72
2022/04/24 12:26:20;;;;;;;9.00;3.90;;;;;;;16.16;nan;102880.75;10362790;28;20041;-72
2022/04/24 12:31:26;;;;;;;5.43;2.20;;;;;;;17.17;nan;103294.50;10369808;28;20076;-73
2022/04/24 12:36:28;;;;;;;4.65;2.03;;;;;;;16.91;nan;103188.75;10367217;28;20044;-72
2022/04/24 12:41:31;;;;;;;4.68;2.17;;;;;;;17.08;nan;103245.75;10365294;28;20053;-72
2022/04/24 12:46:34;;;;;;;5.45;2.00;;;;;;;16.93;nan;103184.41;10364551;28;20053;-72
2022/04/24 12:51:35;;;;;;;5.40;2.28;;;;;;;17.09;nan;103251.91;10373683;28;20050;-72
2022/04/24 12:56:41;;;;;;;5.75;2.40;;;;;;;17.17;nan;103278.63;10367052;28;20125;-73
2022/04/24 13:01:44;;;;;;;6.90;2.33;;;;;;;17.20;nan;103281.34;10357381;28;20038;-73
2022/04/24 13:06:50;;;;;;;3.90;1.88;;;;;;;17.28;nan;103308.97;10366611;28;20414;-73
2022/04/24 13:11:57;;;;;;;5.43;2.40;;;;;;;17.77;nan;103506.41;10363932;28;20045;-72
2022/04/24 13:22:20;;;;;;;5.10;2.03;;;;;;;16.81;nan;103109.94;10369824;28;20053;-73
2022/04/24 13:27:21;;;;;;;9.20;2.22;;;;;;;16.87;nan;103120.72;10364774;28;20053;-72
2022/04/24 13:32:25;;;;;;;6.75;2.42;;;;;;;16.63;nan;103026.53;10366752;28;20041;-72
2022/04/24 13:42:47;;;;;;;9.98;3.97;;;;;;;17.04;nan;103190.91;10366781;28;21143;-72
2022/04/24 13:47:48;;;;;;;6.45;2.50;;;;;;;16.31;nan;102888.19;10368701;28;20038;-73
2022/04/24 13:52:54;;;;;;;4.53;2.08;;;;;;;15.80;nan;102676.34;10372416;28;20108;-72
2022/04/24 13:57:56;;;;;;;5.00;2.40;;;;;;;15.69;nan;102641.72;10359582;28;20046;-72
2022/04/24 14:02:59;;;;;;;7.32;2.40;;;;;;;15.92;nan;102712.75;10363862;28;20030;-72
2022/04/24 14:08:01;;;;;;;6.75;2.78;;;;;;;16.02;nan;102753.53;10363579;28;20430;-73
2022/04/24 14:13:03;;;;;;;8.15;2.08;;;;;;;16.06;nan;102766.88;10381863;28;20041;-72
2022/04/24 14:18:05;;;;;;;6.68;2.33;;;;;;;16.12;nan;102783.72;10369211;28;20037;-72
2022/04/24 14:23:07;;;;;;;4.07;1.80;;;;;;;15.82;nan;102663.19;10372683;28;20050;-72
2022/04/24 14:28:08;;;;;;;5.57;2.28;;;;;;;16.32;nan;102867.09;10373952;28;20045;-72
2022/04/24 14:33:11;;;;;;;10.75;2.53;;;;;;;15.89;nan;102686.25;10376468;28;20653;-72
2022/04/24 14:38:12;;;;;;;4.68;2.20;;;;;;;15.53;nan;102536.56;10369606;28;20038;-72
2022/04/24 14:43:14;;;;;;;4.82;2.30;;;;;;;16.04;nan;102741.25;10371309;28;20497;-73
2022/04/24 14:58:56;;;;;;;8.15;2.50;;;;;;;15.74;nan;102607.50;10375378;28;20084;-72
2022/04/24 15:03:58;;;;;;;8.00;3.08;;;;;;;15.52;nan;102519.84;10377086;28;20042;-73
2022/04/24 15:09:01;;;;;;;8.70;2.33;;;;;;;15.54;nan;102526.03;10368882;28;20041;-73
2022/04/24 15:14:08;;;;;;;5.93;2.35;;;;;;;15.37;nan;102454.38;10377277;28;20034;-73
2022/04/24 15:19:09;;;;;;;6.20;2.22;;;;;;;14.99;nan;102309.22;10374098;28;20465;-73
2022/04/24 15:24:19;;;;;;;5.13;2.20;;;;;;;14.84;nan;102245.59;10368073;28;20037;-73
2022/04/24 15:29:21;;;;;;;7.32;2.28;;;;;;;15.03;nan;102316.38;10371570;28;20042;-73
2022/04/24 15:34:23;;;;;;;6.10;3.05;;;;;;;15.06;nan;102325.19;10369583;28;20037;-72
2022/04/24 15:39:24;;;;;;;10.23;4.32;;;;;;;14.96;nan;102295.97;10378232;28;20125;-73
2022/04/24 15:44:27;;;;;;;9.55;3.17;;;;;;;15.33;nan;102434.03;10375052;28;20053;-72
2022/04/24 15:49:30;;;;;;;7.93;2.95;;;;;;;15.55;nan;102516.38;10362901;28;20088;-73
2022/04/24 15:54:32;;;;;;;6.07;2.90;;;;;;;15.54;nan;102515.47;10375631;28;20042;-73
2022/04/24 15:59:33;;;;;;;10.43;3.17;;;;;;;15.15;nan;102359.72;10363778;28;20057;-73
2022/04/24 16:04:35;;;;;;;9.18;3.33;;;;;;;14.82;nan;102221.81;10371822;28;20034;-73
2022/04/24 16:09:37;;;;;;;6.40;3.00;;;;;;;15.19;nan;102365.13;10365884;28;20037;-73
2022/04/24 16:14:39;;;;;;;7.85;3.30;;;;;;;14.96;nan;102274.88;10385417;28;20076;-73
2022/04/24 16:19:41;;;;;;;8.32;4.13;;;;;;;14.13;nan;101940.97;10369011;28;20052;-73
2022/04/24 16:24:43;;;;;;;8.70;3.53;;;;;;;13.76;nan;101798.00;10371743;28;20042;-73
2022/04/24 16:30:00;;;;;;;8.93;3.63;;;;;;;13.46;nan;101672.84;10368337;28;20048;-73
2022/04/24 16:35:06;;;;;;;8.07;3.38;;;;;;;13.34;nan;101623.53;10357659;28;20033;-74
2022/04/24 16:40:10;;;;;;;9.35;3.75;;;;;;;13.61;nan;101731.03;10343074;28;20041;-72
2022/04/24 16:45:12;;;;;;;10.73;4.00;;;;;;;13.12;nan;101529.28;10369372;28;20092;-73
2022/04/24 16:58:44;;;;;;;9.77;3.97;;;;;;;12.98;nan;101487.84;10353162;28;20121;-73
2022/04/24 17:00:57;;;;;;;11.82;4.45;;;;;;;12.27;nan;101204.63;10364771;28;20049;-75
2022/04/24 17:05:58;;;;;;;9.63;4.20;;;;;;;11.81;nan;101021.88;10367379;28;20474;-77
2022/04/24 17:11:01;;;;;;;12.02;4.70;;;;;;;11.59;nan;100939.34;10366198;28;20198;-76
2022/04/24 17:16:03;;;;;;;13.73;4.50;;;;;;;11.41;nan;100870.88;10363994;28;20047;-76
2022/04/24 17:21:05;;;;;;;10.77;4.88;;;;;;;11.25;nan;100810.34;10365244;28;20496;-75
2022/04/24 17:26:07;;;;;;;9.77;4.55;;;;;;;11.18;nan;100786.66;10364287;28;20053;-74
2022/04/24 17:31:09;;;;;;;12.40;5.22;;;;;;;11.05;nan;100728.84;10363801;28;20046;-73
2022/04/24 17:36:11;;;;;;;15.77;4.95;;;;;;;10.96;nan;100699.91;10360892;28;20061;-73
2022/04/24 17:41:15;;;;;;;11.65;5.07;;;;;;;10.95;nan;100692.88;10367765;28;20108;-74
2022/04/24 17:46:17;;;;;;;12.35;4.75;;;;;;;10.74;nan;100607.91;10381239;28;20535;-74
2022/04/24 17:51:19;;;;;;;11.23;5.20;;;;;;;10.61;nan;100561.44;10368568;28;20042;-73
2022/04/24 17:56:21;;;;;;;11.60;4.55;;;;;;;10.53;nan;100539.53;10361160;28;20030;-73
2022/04/24 18:01:23;;;;;;;10.35;4.20;;;;;;;10.48;nan;100522.88;10360751;28;20046;-73
2022/04/24 18:06:25;;;;;;;10.18;4.55;;;;;;;10.32;nan;100465.06;10363361;28;20052;-73
2022/04/24 18:11:28;;;;;;;14.55;5.03;;;;;;;10.15;nan;100388.09;10384757;28;20095;-72
2022/04/24 18:16:31;;;;;;;10.63;5.10;;;;;;;10.03;nan;100352.22;10375372;28;20057;-73
2022/04/24 18:21:33;;;;;;;13.93;5.03;;;;;;;9.97;nan;100326.84;10363069;28;20523;-73
2022/04/24 18:26:35;;;;;;;9.30;4.93;;;;;;;9.96;nan;100322.47;10376048;28;20052;-73
2022/04/24 18:31:39;;;;;;;8.60;4.25;;;;;;;9.79;nan;100258.63;10371956;28;20042;-72
2022/04/24 18:42:01;;;;;;;13.05;5.20;;;;;;;9.59;nan;100188.69;10372021;28;20046;-72
2022/04/24 18:47:04;;;;;;;16.33;5.38;;;;;;;9.53;nan;100167.69;10377225;28;20041;-72
2022/04/24 18:52:06;;;;;;;10.15;5.32;;;;;;;9.42;nan;100130.13;10377278;28;20057;-72
2022/04/24 18:57:08;;;;;;;11.43;5.03;;;;;;;9.28;nan;100075.97;10373852;28;20141;-72
2022/04/24 19:02:14;;;;;;;9.98;4.75;;;;;;;9.25;nan;100062.88;10372486;28;20089;-72
2022/04/24 19:07:37;;;;;;;12.48;5.93;;;;;;;9.17;nan;100039.31;10367920;28;20069;-73
2022/04/24 19:12:38;;;;;;;14.55;6.30;;;;;;;9.07;nan;99997.38;10359437;28;20045;-74
2022/04/24 19:17:40;;;;;;;16.20;6.35;;;;;;;9.02;nan;99987.78;10359763;28;20046;-77
2022/04/24 19:22:43;;;;;;;19.40;7.20;;;;;;;8.92;nan;99949.38;10358216;28;20525;-77
2022/04/24 19:27:46;;;;;;;15.23;6.55;;;;;;;8.73;nan;99871.72;10358625;28;20088;-76
2022/04/24 19:32:48;;;;;;;16.23;6.18;;;;;;;8.60;nan;99831.56;10359146;28;20045;-76
2022/04/24 19:37:50;;;;;;;12.85;6.28;;;;;;;8.53;nan;99803.66;10360010;28;20500;-77
2022/04/24 19:42:52;;;;;;;16.25;6.38;;;;;;;8.38;nan;99747.00;10353012;28;20081;-76
2022/04/24 19:53:14;;;;;;;12.13;6.28;;;;;;;8.31;nan;99731.25;10359595;28;20413;-77
2022/04/24 19:58:15;;;;;;;14.77;6.80;;;;;;;8.24;nan;99697.28;10358965;28;20757;-76
2022/04/24 20:03:18;;;;;;;15.30;6.38;;;;;;;8.22;nan;99697.28;10373307;28;20111;-76
2022/04/24 20:08:20;;;;;;;14.55;7.38;;;;;;;8.08;nan;99638.94;10366960;28;20073;-76
2022/04/24 20:13:22;;;;;;;16.55;6.80;;;;;;;8.05;nan;99638.91;10358774;28;20042;-76
2022/04/24 20:18:23;;;;;;;16.00;7.60;;;;;;;7.91;nan;99590.13;10345691;28;20042;-76
2022/04/24 20:23:26;;;;;;;14.15;6.75;;;;;;;7.93;nan;99592.75;10358659;28;20049;-74
2022/04/24 20:28:27;;;;;;;13.98;7.18;;;;;;;7.88;nan;99582.28;10352318;28;20466;-75
2022/04/24 20:33:30;;;;;;;14.43;7.50;;;;;;;7.87;nan;99577.91;10358571;28;20042;-75
2022/04/24 20:38:33;;;;;;;13.63;7.97;;;;;;;7.76;nan;99538.75;10369273;28;20053;-76
2022/04/24 20:43:35;;;;;;;16.05;6.90;;;;;;;7.70;nan;99514.34;10358975;28;20038;-76
2022/04/24 20:48:37;;;;;;;14.32;6.95;;;;;;;7.67;nan;99503.91;10366381;28;20091;-76
2022/04/24 20:53:39;;;;;;;14.13;7.15;;;;;;;7.61;nan;99486.47;10365756;28;20417;-77
2022/04/24 20:58:40;;;;;;;16.50;7.80;;;;;;;7.55;nan;99466.47;10357908;28;20050;-77
2022/04/24 21:03:42;;;;;;;21.27;7.80;;;;;;;7.51;nan;99458.63;10366686;28;20037;-77
2022/04/24 21:08:44;;;;;;;14.80;7.45;;;;;;;7.46;nan;99444.69;10361927;28;20045;-76
2022/04/24 21:13:45;;;;;;;20.13;7.82;;;;;;;7.43;nan;99428.19;10365955;28;20034;-75
2022/04/24 21:19:07;;;;;;;16.30;8.35;;;;;;;7.37;nan;99403.81;10355882;28;20038;-75
2022/04/24 21:24:08;;;;;;;17.08;7.25;;;;;;;7.34;nan;99402.06;10363300;28;20524;-75
2022/04/24 21:29:10;;;;;;;17.23;7.38;;;;;;;7.30;nan;99376.00;10361842;28;20354;-74
2022/04/24 21:34:12;;;;;;;24.33;8.75;;;;;;;7.22;nan;99348.16;10372972;28;20525;-75
2022/04/24 21:39:13;;;;;;;15.48;7.88;;;;;;;7.21;nan;99356.81;10359919;28;20033;-74
2022/04/24 21:44:15;;;;;;;16.77;7.53;;;;;;;7.13;nan;99331.59;10363086;28;20065;-73
2022/04/24 21:49:17;;;;;;;18.98;7.88;;;;;;;7.08;nan;99314.19;10365361;28;20049;-74
2022/04/24 21:54:20;;;;;;;20.98;8.15;;;;;;;7.01;nan;99291.59;10361468;28;20059;-74
2022/04/24 21:59:21;;;;;;;14.18;6.72;;;;;;;7.00;nan;99284.66;10371187;28;20054;-74
2022/04/24 22:04:40;;;;;;;18.85;7.05;;;;;;;6.95;nan;99267.25;10346573;28;20092;-75
2022/04/24 22:09:41;;;;;;;17.52;7.85;;;;;;;6.81;nan;99215.97;10364868;28;20049;-74
2022/04/24 22:14:43;;;;;;;20.48;8.10;;;;;;;6.82;nan;99220.34;10365616;28;20053;-75
2022/04/24 22:19:45;;;;;;;15.57;7.95;;;;;;;6.79;nan;99212.50;10359859;28;20040;-74
2022/04/24 22:24:46;;;;;;;18.55;9.07;;;;;;;6.77;nan;99206.44;10367025;28;20057;-75
2022/04/24 22:29:49;;;;;;;18.60;8.00;;;;;;;6.76;nan;99202.06;10344099;28;20054;-75
2022/04/24 22:34:51;;;;;;;19.15;7.78;;;;;;;6.72;nan;99201.19;10361564;28;20049;-75
2022/04/24 22:39:54;;;;;;;20.88;8.52;;;;;;;6.69;nan;99184.69;10357952;28;20045;-74
2022/04/24 22:44:56;;;;;;;15.55;7.32;;;;;;;6.70;nan;99194.22;10360635;28;20045;-75
2022/04/24 22:49:58;;;;;;;16.48;8.23;;;;;;;6.70;nan;99183.81;10353921;28;20169;-75
2022/04/24 22:54:59;;;;;;;14.25;6.82;;;;;;;6.60;nan;99156.00;10361227;28;20464;-75
2022/04/24 23:00:01;;;;;;;15.20;9.10;;;;;;;6.57;nan;99145.59;10369742;28;20042;-74
2022/04/24 23:05:04;;;;;;;18.90;8.25;;;;;;;6.54;nan;99142.13;10364389;28;20050;-74
2022/04/24 23:10:06;;;;;;;18.77;7.25;;;;;;;6.58;nan;99160.34;10368895;28;20775;-75
2022/04/24 23:15:08;;;;;;;17.00;8.55;;;;;;;6.51;nan;99123.84;10359976;28;20038;-74
2022/04/24 23:20:09;;;;;;;17.58;7.68;;;;;;;6.50;nan;99127.34;10360117;28;20681;-76
2022/04/24 23:25:11;;;;;;;16.85;7.38;;;;;;;6.53;nan;99145.56;10369180;28;20060;-75
2022/04/24 23:30:13;;;;;;;15.32;7.07;;;;;;;6.53;nan;99145.56;10347631;28;20060;-75
2022/04/24 23:35:15;;;;;;;18.45;8.40;;;;;;;6.49;nan;99130.78;10363723;28;20042;-75
2022/04/24 23:40:16;;;;;;;16.08;7.03;;;;;;;6.53;nan;99152.47;10358301;28;20521;-75
2022/04/24 23:45:18;;;;;;;17.63;7.50;;;;;;;6.61;nan;99178.56;10365369;28;20547;-75
2022/04/24 23:50:20;;;;;;;15.00;7.45;;;;;;;6.70;nan;99222.84;10359579;28;20413;-75
2022/04/24 23:55:21;;;;;;;17.50;8.27;;;;;;;6.66;nan;99211.53;10373765;28;20038;-75
